createdAt,value
2019-02-02T00:00:56.324Z,1.50
2019-02-02T00:03:24.670Z,1.50
2019-02-02T00:05:53.495Z,1.50
2019-02-02T00:08:22.639Z,1.50
2019-02-02T00:10:51.075Z,1.50
2019-02-02T00:13:19.447Z,1.50
2019-02-02T00:15:47.826Z,1.50
2019-02-02T00:18:16.193Z,1.60
2019-02-02T00:20:45.504Z,1.60
2019-02-02T00:23:13.904Z,1.60
2019-02-02T00:25:42.325Z,1.60
2019-02-02T00:28:10.690Z,1.60
2019-02-02T00:30:39.063Z,1.60
2019-02-02T00:33:07.447Z,1.60
2019-02-02T00:35:37.111Z,1.60
2019-02-02T00:38:05.473Z,1.60
2019-02-02T00:40:33.822Z,1.60
2019-02-02T00:43:02.225Z,1.60
2019-02-02T00:45:30.918Z,1.60
2019-02-02T00:47:59.278Z,1.60
2019-02-02T00:50:27.710Z,1.60
2019-02-02T00:52:56.361Z,1.60
2019-02-02T00:55:25.311Z,1.60
2019-02-02T00:57:54.101Z,1.60
2019-02-02T01:00:25.364Z,1.60
2019-02-02T01:02:55.299Z,1.60
2019-02-02T01:05:23.896Z,1.60
2019-02-02T01:08:13.659Z,1.60
2019-02-02T01:10:42.964Z,1.60
2019-02-02T01:13:11.320Z,1.50
2019-02-02T01:15:40.022Z,1.50
2019-02-02T01:18:17.166Z,1.50
2019-02-02T01:20:46.299Z,1.50
2019-02-02T01:23:14.986Z,1.50
2019-02-02T01:25:43.368Z,1.60
2019-02-02T01:28:12.046Z,1.50
2019-02-02T01:30:41.864Z,1.50
2019-02-02T01:33:10.219Z,1.50
2019-02-02T01:35:38.623Z,1.60
2019-02-02T01:38:06.982Z,1.60
2019-02-02T01:40:35.314Z,1.60
2019-02-02T01:43:03.678Z,1.60
2019-02-02T01:45:32.326Z,1.60
2019-02-02T01:48:00.719Z,1.60
2019-02-02T01:50:30.119Z,1.60
2019-02-02T01:52:58.531Z,1.60
2019-02-02T01:55:26.890Z,1.60
2019-02-02T01:57:55.214Z,1.60
2019-02-02T02:00:26.449Z,1.60
2019-02-02T02:02:54.829Z,1.50
2019-02-02T02:05:23.259Z,1.60
2019-02-02T02:07:51.660Z,1.50
2019-02-02T02:10:20.766Z,1.50
2019-02-02T02:12:49.154Z,1.50
2019-02-02T02:15:18.669Z,1.50
2019-02-02T02:17:47.206Z,1.50
2019-02-02T02:20:18.171Z,1.50
2019-02-02T02:22:47.392Z,1.50
2019-02-02T02:25:17.394Z,1.50
2019-02-02T02:27:45.861Z,1.50
2019-02-02T02:30:19.356Z,1.50
2019-02-02T02:32:48.271Z,1.40
2019-02-02T02:35:17.093Z,1.50
2019-02-02T02:37:45.773Z,1.50
2019-02-02T02:40:39.427Z,1.40
2019-02-02T02:43:07.815Z,1.40
2019-02-02T02:45:36.178Z,1.50
2019-02-02T02:48:05.276Z,1.40
2019-02-02T02:50:33.989Z,1.40
2019-02-02T02:53:02.371Z,1.40
2019-02-02T02:55:32.386Z,1.40
2019-02-02T02:58:00.776Z,1.40
2019-02-02T03:00:30.094Z,1.40
2019-02-02T03:02:58.439Z,1.40
2019-02-02T03:05:26.830Z,1.40
2019-02-02T03:07:55.563Z,1.40
2019-02-02T03:10:45.264Z,1.40
2019-02-02T03:13:13.620Z,1.40
2019-02-02T03:15:41.984Z,1.50
2019-02-02T03:18:10.371Z,1.40
2019-02-02T03:20:39.498Z,1.40
2019-02-02T03:23:07.927Z,1.50
2019-02-02T03:25:36.323Z,1.50
2019-02-02T03:28:04.687Z,1.40
2019-02-02T03:30:33.843Z,1.50
2019-02-02T03:33:02.202Z,1.50
2019-02-02T03:35:30.563Z,1.50
2019-02-02T03:37:58.955Z,1.50
2019-02-02T03:40:27.315Z,1.50
2019-02-02T03:42:55.701Z,1.50
2019-02-02T03:45:24.465Z,1.50
2019-02-02T03:47:53.765Z,1.50
2019-02-02T03:50:22.146Z,1.50
2019-02-02T03:52:50.891Z,1.50
2019-02-02T03:55:19.224Z,1.50
2019-02-02T03:57:47.928Z,1.50
2019-02-02T04:00:40.468Z,1.40
2019-02-02T04:03:09.403Z,1.50
2019-02-02T04:05:37.822Z,1.50
2019-02-02T04:08:06.534Z,1.50
2019-02-02T04:10:35.026Z,1.50
2019-02-02T04:13:03.475Z,1.50
2019-02-02T04:15:31.933Z,1.50
2019-02-02T04:18:00.347Z,1.50
2019-02-02T04:20:28.738Z,1.50
2019-02-02T04:22:58.581Z,1.50
2019-02-02T04:25:27.692Z,1.50
2019-02-02T04:27:57.252Z,1.50
2019-02-02T04:30:48.192Z,1.50
2019-02-02T04:33:16.922Z,1.50
2019-02-02T04:35:45.423Z,1.50
2019-02-02T04:38:15.561Z,1.50
2019-02-02T04:40:45.076Z,1.50
2019-02-02T04:43:14.307Z,1.50
2019-02-02T04:45:45.874Z,1.50
2019-02-02T04:48:14.499Z,1.50
2019-02-02T04:50:43.134Z,1.50
2019-02-02T04:53:16.498Z,1.40
2019-02-02T04:55:54.688Z,1.40
2019-02-02T04:58:30.390Z,1.40
2019-02-02T05:01:01.573Z,1.40
2019-02-02T05:03:37.596Z,1.40
2019-02-02T05:06:13.903Z,1.40
2019-02-02T05:08:50.113Z,1.40
2019-02-02T05:11:20.203Z,1.30
2019-02-02T05:19:42.293Z,1.30
2019-02-02T05:22:13.697Z,1.30
2019-02-02T05:27:36.869Z,1.30
2019-02-02T05:30:26.713Z,1.30
2019-02-02T05:32:55.341Z,1.30
2019-02-02T05:35:29.597Z,1.30
2019-02-02T05:38:01.128Z,1.20
2019-02-02T05:40:34.147Z,1.30
2019-02-02T05:43:26.609Z,1.20
2019-02-02T05:45:56.144Z,1.20
2019-02-02T05:48:36.977Z,1.30
2019-02-02T05:51:09.224Z,1.20
2019-02-02T05:56:28.674Z,1.20
2019-02-02T05:59:03.078Z,1.20
2019-02-02T06:01:36.952Z,1.20
2019-02-02T06:04:07.081Z,1.20
2019-02-02T06:06:38.313Z,1.20
2019-02-02T06:09:08.742Z,1.20
2019-02-02T06:11:37.339Z,1.10
2019-02-02T06:14:06.119Z,1.10
2019-02-02T06:16:34.656Z,1.20
2019-02-02T06:19:05.921Z,1.10
2019-02-02T06:21:35.074Z,1.10
2019-02-02T06:24:03.725Z,1.10
2019-02-02T06:26:32.175Z,1.10
2019-02-02T06:29:00.890Z,1.10
2019-02-02T06:31:29.580Z,1.10
2019-02-02T06:33:57.982Z,1.10
2019-02-02T06:36:26.383Z,1.20
2019-02-02T06:38:54.795Z,1.20
2019-02-02T06:41:23.169Z,1.20
2019-02-02T06:43:51.568Z,1.10
2019-02-02T06:46:21.161Z,1.10
2019-02-02T06:48:49.565Z,1.20
2019-02-02T06:51:18.028Z,1.30
2019-02-02T06:53:46.827Z,1.20
2019-02-02T06:56:15.492Z,1.30
2019-02-02T06:58:44.695Z,1.20
2019-02-02T07:01:13.072Z,1.30
2019-02-02T07:03:41.484Z,1.30
2019-02-02T07:06:09.943Z,1.30
2019-02-02T07:08:38.713Z,1.40
2019-02-02T07:11:07.100Z,1.40
2019-02-02T07:13:36.105Z,1.40
2019-02-02T07:16:04.660Z,1.40
2019-02-02T07:18:33.046Z,1.40
2019-02-02T07:21:01.722Z,1.40
2019-02-02T07:23:30.139Z,1.40
2019-02-02T07:25:58.509Z,1.40
2019-02-02T07:28:41.461Z,1.50
2019-02-02T07:37:36.811Z,1.50
2019-02-02T07:40:26.453Z,1.50
2019-02-02T08:09:58.078Z,1.60
2019-02-02T08:57:42.092Z,1.70
2019-02-02T09:00:15.773Z,1.70
2019-02-02T09:30:52.143Z,1.80
2019-02-02T13:41:04.432Z,3.80
2019-02-02T13:52:29.618Z,3.80
2019-02-02T14:06:36.206Z,3.60
2019-02-02T14:08:47.730Z,3.50
2019-02-02T14:11:22.915Z,3.40
2019-02-02T14:13:51.684Z,3.50
2019-02-02T14:16:20.474Z,3.40
2019-02-02T14:18:49.055Z,3.40
2019-02-02T14:21:17.748Z,3.30
2019-02-02T14:23:47.945Z,3.30
2019-02-02T14:26:24.345Z,3.30
2019-02-02T14:28:52.901Z,3.30
2019-02-02T14:31:21.551Z,3.20
2019-02-02T14:33:50.824Z,3.20
2019-02-02T14:36:20.026Z,3.20
2019-02-02T14:39:10.224Z,3.10
2019-02-02T14:41:39.976Z,3.10
2019-02-02T14:44:12.417Z,3.10
2019-02-02T14:46:40.846Z,3.00
2019-02-02T14:49:16.546Z,3.00
2019-02-02T14:51:49.024Z,2.90
2019-02-02T14:54:17.522Z,2.90
2019-02-02T14:56:59.177Z,2.90
2019-02-02T14:59:31.629Z,2.80
2019-02-02T15:02:01.037Z,2.80
2019-02-02T15:04:32.034Z,2.70
2019-02-02T15:07:00.593Z,2.70
2019-02-02T15:09:29.315Z,2.60
2019-02-02T15:12:01.035Z,2.60
2019-02-02T15:14:39.606Z,2.60
2019-02-02T15:17:08.384Z,2.60
2019-02-02T15:19:42.474Z,2.60
2019-02-02T15:22:13.668Z,2.60
2019-02-02T15:24:42.679Z,2.50
2019-02-02T15:27:16.551Z,2.50
2019-02-02T15:29:46.627Z,2.50
2019-02-02T15:32:17.908Z,2.50
2019-02-02T15:34:49.086Z,2.50
2019-02-02T15:37:18.752Z,2.50
2019-02-02T15:39:49.789Z,2.50
2019-02-02T15:42:18.400Z,2.50
2019-02-02T15:44:47.180Z,2.40
2019-02-02T15:47:18.674Z,2.40
2019-02-02T15:49:47.767Z,2.40
2019-02-02T15:52:18.268Z,2.40
2019-02-02T15:54:47.921Z,2.40
2019-02-02T15:57:18.113Z,2.40
2019-02-02T15:59:51.323Z,2.40
2019-02-02T16:02:19.743Z,2.30
2019-02-02T16:04:52.018Z,2.30
2019-02-02T16:07:27.683Z,2.30
2019-02-02T16:10:04.126Z,2.30
2019-02-02T16:12:35.657Z,2.30
2019-02-02T16:20:41.909Z,2.20
2019-02-02T16:23:10.037Z,2.20
2019-02-02T16:25:38.433Z,2.20
2019-02-02T16:28:06.813Z,2.20
2019-02-02T16:30:35.231Z,2.20
2019-02-02T16:33:04.055Z,2.20
2019-02-02T16:35:32.421Z,2.20
2019-02-02T16:38:00.804Z,2.10
2019-02-02T16:40:30.506Z,2.10
2019-02-02T16:42:58.891Z,2.10
2019-02-02T16:45:30.478Z,2.10
2019-02-02T16:47:58.943Z,2.10
2019-02-02T16:50:27.310Z,2.10
2019-02-02T16:52:55.982Z,2.10
2019-02-02T16:55:24.390Z,2.10
2019-02-02T16:57:52.759Z,2.10
2019-02-02T17:00:25.828Z,2.10
2019-02-02T17:02:55.167Z,2.10
2019-02-02T17:05:23.486Z,2.10
2019-02-02T17:08:11.280Z,2.10
2019-02-02T17:10:39.920Z,2.10
2019-02-02T17:13:08.277Z,2.10
2019-02-02T17:15:36.667Z,2.10
2019-02-02T17:18:05.673Z,2.10
2019-02-02T17:20:42.240Z,2.10
2019-02-02T17:23:10.797Z,2.00
2019-02-02T17:25:39.444Z,2.00
2019-02-02T17:28:08.234Z,2.00
2019-02-02T17:30:36.701Z,2.00
2019-02-02T17:33:10.254Z,2.00
2019-02-02T17:35:38.648Z,1.90
2019-02-02T17:38:07.180Z,1.90
2019-02-02T17:40:35.511Z,1.90
2019-02-02T17:43:03.885Z,1.90
2019-02-02T17:45:32.380Z,1.90
2019-02-02T17:48:00.743Z,1.90
2019-02-02T17:50:30.080Z,1.80
2019-02-02T17:52:58.445Z,1.80
2019-02-02T17:55:28.382Z,1.80
2019-02-02T17:57:56.791Z,1.80
2019-02-02T18:00:53.639Z,1.80
2019-02-02T18:03:22.077Z,1.80
2019-02-02T18:05:50.549Z,1.80
2019-02-02T18:08:18.902Z,1.70
2019-02-02T18:10:47.434Z,1.70
2019-02-02T18:13:15.826Z,1.70
2019-02-02T18:15:45.115Z,1.60
2019-02-02T18:18:14.252Z,1.60
2019-02-02T18:20:42.834Z,1.60
2019-02-02T18:23:12.142Z,1.60
2019-02-02T18:25:42.087Z,1.60
2019-02-02T18:28:10.546Z,1.60
2019-02-02T18:30:39.092Z,1.60
2019-02-02T18:33:08.971Z,1.60
2019-02-02T18:35:38.333Z,1.60
2019-02-02T18:38:07.120Z,1.60
2019-02-02T18:40:36.533Z,1.60
2019-02-02T18:43:05.104Z,1.60
2019-02-02T18:45:35.528Z,1.60
2019-02-02T18:48:04.241Z,1.50
2019-02-02T18:50:33.803Z,1.50
2019-02-02T18:53:02.313Z,1.50
2019-02-02T18:55:57.969Z,1.50
2019-02-02T18:58:27.112Z,1.50
2019-02-02T19:00:55.811Z,1.50
2019-02-02T19:03:24.779Z,1.50
2019-02-02T19:05:53.149Z,1.50
2019-02-02T19:08:21.940Z,1.50
2019-02-02T19:10:50.340Z,1.50
2019-02-02T19:13:19.235Z,1.50
2019-02-02T19:15:47.644Z,1.50
2019-02-02T19:18:17.001Z,1.50
2019-02-02T19:20:46.395Z,1.50
2019-02-02T19:23:24.915Z,1.50
2019-02-02T19:25:44.825Z,1.50
2019-02-02T19:28:13.255Z,1.50
2019-02-02T19:30:41.694Z,1.40
2019-02-02T19:33:10.799Z,1.50
2019-02-02T19:35:41.764Z,1.40
2019-02-02T19:38:10.905Z,1.40
2019-02-02T19:40:39.521Z,1.30
2019-02-02T19:43:08.186Z,1.30
2019-02-02T19:45:47.070Z,1.30
2019-02-02T19:48:20.469Z,1.30
2019-02-02T19:50:52.491Z,1.30
2019-02-02T19:53:21.671Z,1.20
2019-02-02T19:58:50.843Z,1.10
2019-02-02T20:01:20.742Z,1.10
2019-02-02T20:06:44.560Z,1.00
2019-02-02T20:09:15.414Z,0.90
2019-02-02T20:20:59.400Z,0.80
2019-02-02T20:29:34.416Z,0.90
2019-02-02T20:32:03.806Z,0.90
2019-02-02T20:35:03.221Z,0.90
2019-02-02T20:43:41.936Z,0.90
2019-02-02T21:33:05.303Z,0.80
2019-02-02T21:54:50.954Z,0.80
2019-02-02T22:05:48.990Z,0.80
2019-02-02T22:11:21.036Z,0.70
2019-02-02T22:22:55.070Z,0.80
2019-02-02T22:31:45.116Z,0.90
2019-02-02T22:34:15.467Z,0.80
2019-02-02T22:42:41.626Z,0.80
2019-02-02T22:45:20.121Z,0.80
2019-02-02T22:48:04.562Z,0.80
2019-02-02T22:50:50.215Z,0.90
2019-02-02T22:53:42.347Z,0.90
2019-02-02T22:59:04.395Z,0.90
2019-02-02T23:01:38.086Z,0.90
2019-02-02T23:04:16.106Z,0.90
2019-02-02T23:07:04.569Z,0.90
2019-02-02T23:09:55.360Z,0.90
2019-02-02T23:15:41.646Z,0.80
2019-02-02T23:18:20.173Z,0.80
2019-02-02T23:20:53.396Z,0.80
2019-02-02T23:23:25.571Z,0.80
2019-02-02T23:26:00.407Z,0.80
2019-02-02T23:28:29.063Z,0.80
2019-02-02T23:30:58.876Z,0.80
2019-02-02T23:33:31.829Z,0.80
2019-02-02T23:36:08.003Z,0.80
2019-02-02T23:38:37.733Z,0.80
2019-02-02T23:41:06.428Z,0.80
2019-02-02T23:43:42.362Z,0.80
2019-02-02T23:46:11.510Z,0.80
2019-02-02T23:48:41.230Z,0.70
2019-02-02T23:51:12.414Z,0.70
2019-02-02T23:53:41.785Z,0.80
2019-02-02T23:58:59.879Z,0.70
